CYQH

Watson Lake Airport

Watson Lake, , Canada
METAR CYQH 181600Z 29002KT 20SM SCT076 M20/M22 A2975 RMK AC4 SLP135
Observed Flight Rules
Dec-18 @ 16:00 UTC (44 minutes ago) Visual Flight Rules
Wind Visibility Clouds
290° at 2 knots 20 miles
  • Scattered at 7,600' AGL
Temperatures Readings
Current -20°C / -4°F
Dewpoint -22°C / -8°F
Humidity 84%
Altimeter 29.75" Hg
Pressure 1013.5 hPa
Elevation 690
METAR CYQH 181600Z 29002KT 20SM SCT076 M20/M22 A2975 RMK AC4 SLP135
Observed Flight Rules
Dec-18 @ 16:00 UTC
(44 minutes ago)
VFR
Wind Visibility
290° at 2 knots 20 miles
Clouds
  • Scattered at 7,600' AGL
Temperature Dewpoint
-20°C / -4°F -22°C / -8°F
Humidity Altimeter Pressure
84% 29.75" Hg 1013.5 hPa